Time;durP1;ratioP1;P1;durP2;ratioP2;P2;SDS_P1;SDS_P2;PMS_P1;PMS_P2;Temp;Humidity;BMP_temperature;BMP_pressure;BME280_temperature;BME280_humidity;BME280_pressure;Samples;Min_cycle;Max_cycle;Signal;HPM_P1;HPM_P2
2022/05/12 00:00:35;;;;;;;24.25;6.30;;;14.60;99.90;;;;;;5073545;28;20447;-72
2022/05/12 00:03:01;;;;;;;24.27;6.60;;;14.60;99.90;;;;;;5078414;28;20385;-73
2022/05/12 00:05:28;;;;;;;28.70;6.30;;;14.60;99.90;;;;;;5093784;28;20094;-73
2022/05/12 00:07:54;;;;;;;33.35;6.15;;;14.50;99.90;;;;;;5093786;28;20028;-73
2022/05/12 00:10:24;;;;;;;25.40;6.18;;;14.50;99.90;;;;;;5093917;28;20035;-72
2022/05/12 00:12:51;;;;;;;23.20;5.95;;;14.40;99.90;;;;;;5092220;28;20476;-72
2022/05/12 00:15:26;;;;;;;23.63;6.35;;;14.30;99.90;;;;;;5093884;28;20471;-72
2022/05/12 00:17:53;;;;;;;22.60;5.78;;;14.20;99.90;;;;;;5093251;28;20111;-72
2022/05/12 00:20:21;;;;;;;30.90;7.55;;;14.20;99.90;;;;;;5093216;28;20108;-72
2022/05/12 00:22:48;;;;;;;29.52;7.80;;;14.10;99.90;;;;;;5093682;28;20028;-72
2022/05/12 00:25:17;;;;;;;22.33;6.50;;;14.10;99.90;;;;;;5093489;28;20101;-72
2022/05/12 00:27:43;;;;;;;24.90;7.47;;;14.00;99.90;;;;;;5093693;28;20365;-72
2022/05/12 00:30:10;;;;;;;21.65;7.30;;;14.10;99.90;;;;;;5093473;28;20035;-72
2022/05/12 00:32:38;;;;;;;29.23;8.73;;;14.10;99.90;;;;;;5093298;28;20032;-73
2022/05/12 00:35:06;;;;;;;29.77;9.30;;;14.10;99.90;;;;;;5093090;28;20028;-73
2022/05/12 00:37:32;;;;;;;29.00;7.90;;;13.90;99.90;;;;;;5093418;28;20055;-72
2022/05/12 00:39:58;;;;;;;29.15;9.60;;;13.90;99.90;;;;;;5093223;28;20032;-72
2022/05/12 00:42:24;;;;;;;34.60;10.05;;;13.80;99.90;;;;;;5093422;28;20054;-72
2022/05/12 00:44:50;;;;;;;26.33;9.07;;;13.80;99.90;;;;;;5093068;28;20027;-73
2022/05/12 00:47:16;;;;;;;30.45;10.07;;;14.00;99.90;;;;;;5083221;28;20047;-72
2022/05/12 00:49:44;;;;;;;28.85;10.32;;;14.00;99.90;;;;;;5072828;28;20013;-72
2022/05/12 00:52:15;;;;;;;30.30;11.30;;;14.10;99.90;;;;;;5073106;28;20166;-72
2022/05/12 00:54:53;;;;;;;33.47;11.18;;;14.00;99.90;;;;;;5072892;28;20106;-72
2022/05/12 00:57:33;;;;;;;33.20;11.48;;;14.20;99.90;;;;;;5072954;28;20434;-72
2022/05/12 01:00:00;;;;;;;32.63;10.65;;;14.00;99.90;;;;;;5072272;28;20056;-72
2022/05/12 01:02:28;;;;;;;28.00;11.85;;;14.10;99.90;;;;;;5073027;28;20032;-73
2022/05/12 01:04:58;;;;;;;36.72;12.05;;;14.30;99.90;;;;;;5093015;28;20028;-73
2022/05/12 01:07:24;;;;;;;28.02;11.50;;;14.50;99.90;;;;;;5092800;28;20044;-72
2022/05/12 01:09:51;;;;;;;31.65;10.68;;;14.70;99.90;;;;;;5091653;28;20380;-72
2022/05/12 01:12:17;;;;;;;28.48;10.45;;;14.40;99.90;;;;;;5093038;28;20024;-72
2022/05/12 01:14:43;;;;;;;29.35;11.32;;;14.30;99.90;;;;;;5092489;28;20524;-72
2022/05/12 01:17:09;;;;;;;28.77;11.88;;;14.30;99.90;;;;;;5092832;28;20099;-71
2022/05/12 01:19:38;;;;;;;28.08;11.40;;;14.30;99.90;;;;;;5092998;28;20064;-72
2022/05/12 01:22:07;;;;;;;30.80;10.88;;;14.30;99.90;;;;;;5092880;28;20466;-72
2022/05/12 01:24:40;;;;;;;23.40;11.25;;;14.30;99.90;;;;;;5091552;28;20060;-72
2022/05/12 01:27:19;;;;;;;26.35;11.60;;;14.00;99.90;;;;;;5092743;28;20122;-72
2022/05/12 01:29:52;;;;;;;24.13;11.43;;;14.10;99.90;;;;;;5088744;28;20037;-72
2022/05/12 01:32:21;;;;;;;31.83;11.75;;;14.10;99.90;;;;;;5072149;28;20082;-73
2022/05/12 01:34:47;;;;;;;33.20;12.48;;;14.20;99.90;;;;;;5072307;28;20031;-72
2022/05/12 01:37:13;;;;;;;33.55;13.20;;;14.40;99.90;;;;;;5071521;28;20040;-72
2022/05/12 01:39:39;;;;;;;27.83;12.18;;;14.80;99.90;;;;;;5071126;28;20032;-72
2022/05/12 01:42:07;;;;;;;32.05;12.43;;;14.70;99.90;;;;;;5072579;28;20111;-72
2022/05/12 01:44:35;;;;;;;30.85;11.95;;;14.50;99.90;;;;;;5072171;28;20021;-72
2022/05/12 01:47:01;;;;;;;31.48;13.13;;;14.80;99.90;;;;;;5079369;28;20044;-72
2022/05/12 01:49:27;;;;;;;30.35;13.30;;;14.60;99.90;;;;;;5092651;28;20020;-72
2022/05/12 01:51:54;;;;;;;29.45;13.38;;;14.60;99.90;;;;;;5091167;28;20484;-72
2022/05/12 01:54:21;;;;;;;30.45;12.95;;;14.50;99.90;;;;;;5092585;28;20024;-72
2022/05/12 01:56:47;;;;;;;30.58;13.98;;;14.30;99.90;;;;;;5092367;28;20089;-72
2022/05/12 01:59:12;;;;;;;25.83;14.98;;;14.10;99.90;;;;;;5092398;28;20408;-72
2022/05/12 02:01:38;;;;;;;36.50;18.40;;;14.10;99.90;;;;;;5092278;28;20028;-72
2022/05/12 02:04:05;;;;;;;39.30;18.95;;;13.90;99.90;;;;;;5092261;28;20516;-72
2022/05/12 02:06:32;;;;;;;34.03;19.48;;;14.10;99.90;;;;;;5092192;28;20040;-72
2022/05/12 02:08:58;;;;;;;34.42;20.10;;;14.20;99.90;;;;;;5092383;28;20047;-72
2022/05/12 02:11:25;;;;;;;49.45;20.00;;;14.30;99.90;;;;;;5074388;28;20443;-72
2022/05/12 02:13:51;;;;;;;41.85;19.05;;;14.40;99.90;;;;;;5092404;28;20020;-72
2022/05/12 02:16:17;;;;;;;38.72;19.30;;;14.40;99.90;;;;;;5095822;28;20031;-72
2022/05/12 02:18:43;;;;;;;43.90;19.58;;;14.50;99.90;;;;;;5096122;28;20107;-72
2022/05/12 02:21:10;;;;;;;35.53;18.42;;;14.40;99.90;;;;;;5095815;28;20387;-72
2022/05/12 02:23:36;;;;;;;38.72;18.15;;;14.20;99.90;;;;;;5096090;28;20032;-72
2022/05/12 02:26:02;;;;;;;40.65;18.88;;;14.30;99.90;;;;;;5095683;28;20047;-73
2022/05/12 02:28:28;;;;;;;43.90;17.38;;;14.40;99.90;;;;;;5095489;28;20089;-72
2022/05/12 02:30:54;;;;;;;35.42;17.23;;;14.40;99.90;;;;;;5095724;28;20028;-72
2022/05/12 02:33:21;;;;;;;40.95;17.08;;;14.60;99.90;;;;;;5095633;28;20114;-72
2022/05/12 02:35:47;;;;;;;35.85;16.42;;;14.50;99.90;;;;;;5095488;28;20085;-72
2022/05/12 02:38:13;;;;;;;39.80;16.40;;;14.40;99.90;;;;;;5094335;28;20055;-72
2022/05/12 02:40:40;;;;;;;46.00;16.33;;;14.30;99.90;;;;;;5095634;28;20107;-72
2022/05/12 02:43:24;;;;;;;40.95;15.70;;;14.50;99.90;;;;;;5095166;28;20054;-72
2022/05/12 02:46:06;;;;;;;42.47;15.82;;;14.60;99.90;;;;;;5095421;28;20472;-72
2022/05/12 02:48:34;;;;;;;42.80;15.90;;;14.80;99.90;;;;;;5075333;28;20033;-72
2022/05/12 02:51:00;;;;;;;37.35;14.63;;;14.50;99.90;;;;;;5075105;28;20025;-72
2022/05/12 02:53:27;;;;;;;38.30;14.27;;;14.70;99.90;;;;;;5075110;28;20025;-73
2022/05/12 02:55:54;;;;;;;38.40;15.38;;;14.80;99.90;;;;;;5074857;28;20036;-72
2022/05/12 02:58:20;;;;;;;37.10;15.70;;;14.50;99.90;;;;;;5074891;28;20142;-72
2022/05/12 03:00:49;;;;;;;44.40;15.65;;;14.60;99.90;;;;;;5075407;28;20083;-72
2022/05/12 03:03:16;;;;;;;38.35;13.77;;;14.20;99.90;;;;;;5081906;28;20434;-72
2022/05/12 03:05:42;;;;;;;34.65;13.93;;;14.30;99.90;;;;;;5094721;28;20138;-72
2022/05/12 03:08:09;;;;;;;43.67;15.05;;;14.30;99.90;;;;;;5094956;28;20031;-72
2022/05/12 03:10:35;;;;;;;39.80;14.85;;;14.10;99.90;;;;;;5094716;28;20035;-72
2022/05/12 03:13:01;;;;;;;39.72;15.70;;;14.10;99.90;;;;;;5095023;28;20488;-72
2022/05/12 03:15:27;;;;;;;45.05;15.20;;;13.90;99.90;;;;;;5094708;28;20020;-72
2022/05/12 03:17:54;;;;;;;37.88;14.82;;;13.80;99.90;;;;;;5084305;28;20036;-72
2022/05/12 03:20:23;;;;;;;35.85;15.35;;;13.70;99.90;;;;;;5085615;28;20099;-72
2022/05/12 03:22:49;;;;;;;36.38;13.75;;;13.70;99.90;;;;;;5094664;28;20536;-72
2022/05/12 03:25:17;;;;;;;45.60;15.48;;;13.70;99.90;;;;;;5093029;28;20515;-72
2022/05/12 03:27:43;;;;;;;47.58;16.27;;;13.80;99.90;;;;;;5092787;28;20032;-72
2022/05/12 03:30:16;;;;;;;34.95;14.30;;;13.90;99.90;;;;;;5094690;28;20035;-72
2022/05/12 03:32:43;;;;;;;32.70;15.13;;;13.80;99.90;;;;;;5094511;28;20024;-72
2022/05/12 03:35:10;;;;;;;35.00;14.27;;;13.50;99.90;;;;;;5094497;28;20023;-72
2022/05/12 03:37:37;;;;;;;36.30;14.82;;;13.40;99.90;;;;;;5092872;28;20047;-72
2022/05/12 03:40:05;;;;;;;37.50;14.32;;;13.50;99.90;;;;;;5093974;28;20029;-72
2022/05/12 03:42:30;;;;;;;38.47;14.40;;;13.50;99.90;;;;;;5094332;28;20032;-72
2022/05/12 03:44:58;;;;;;;38.45;14.43;;;13.40;99.90;;;;;;5094367;28;20024;-72
2022/05/12 03:47:26;;;;;;;38.75;13.60;;;13.30;99.90;;;;;;5083374;28;20044;-72
2022/05/12 03:50:01;;;;;;;35.78;14.50;;;13.30;99.90;;;;;;5073938;28;20040;-72
2022/05/12 03:52:27;;;;;;;48.58;15.45;;;13.20;99.90;;;;;;5072548;28;20132;-72
2022/05/12 03:54:53;;;;;;;38.22;13.80;;;13.30;99.90;;;;;;5073728;28;20056;-72
2022/05/12 03:57:20;;;;;;;40.30;14.65;;;13.20;99.90;;;;;;5073796;28;20067;-72
2022/05/12 03:59:48;;;;;;;39.75;14.98;;;13.40;99.90;;;;;;5073730;28;20120;-72
2022/05/12 04:02:15;;;;;;;36.05;14.27;;;13.30;99.90;;;;;;5072486;28;20111;-72
2022/05/12 04:04:42;;;;;;;38.00;14.38;;;13.30;99.90;;;;;;5092550;28;20028;-72
2022/05/12 04:07:11;;;;;;;47.78;14.20;;;13.00;99.90;;;;;;5093718;28;20040;-72
2022/05/12 04:09:37;;;;;;;37.83;14.48;;;12.80;99.90;;;;;;5093582;28;20028;-72
2022/05/12 04:12:05;;;;;;;34.35;13.57;;;12.80;99.90;;;;;;5093918;28;20102;-72
2022/05/12 04:14:32;;;;;;;39.58;14.75;;;13.00;99.90;;;;;;5093621;28;20028;-72
2022/05/12 04:17:01;;;;;;;36.80;13.80;;;13.00;99.90;;;;;;5092394;28;20024;-72
2022/05/12 04:19:28;;;;;;;39.03;15.35;;;12.90;99.90;;;;;;5093559;28;20173;-72
2022/05/12 04:21:54;;;;;;;35.67;13.57;;;13.00;99.90;;;;;;5093758;28;20036;-72
2022/05/12 04:24:20;;;;;;;38.08;15.52;;;12.80;99.90;;;;;;5091974;28;20044;-72
2022/05/12 04:26:46;;;;;;;35.30;13.90;;;12.90;99.90;;;;;;5093560;28;20156;-73
2022/05/12 04:29:12;;;;;;;37.17;14.23;;;13.10;99.90;;;;;;5093648;28;20030;-72
2022/05/12 04:31:39;;;;;;;43.45;14.52;;;13.00;99.90;;;;;;5093646;28;20064;-72
2022/05/12 04:36:50;;;;;;;51.05;15.73;;;13.00;99.90;;;;;;5091570;28;20040;-72
2022/05/12 04:39:17;;;;;;;39.15;13.43;;;12.80;99.90;;;;;;5092987;28;20035;-72
2022/05/12 04:41:44;;;;;;;44.45;15.38;;;12.80;99.90;;;;;;5093336;28;20036;-72
2022/05/12 04:44:10;;;;;;;33.63;16.08;;;12.90;99.90;;;;;;5092110;28;20037;-72
2022/05/12 04:46:37;;;;;;;41.88;12.20;;;12.90;99.90;;;;;;5087882;28;20534;-73
2022/05/12 04:49:05;;;;;;;45.60;14.50;;;12.60;99.90;;;;;;5072166;28;20052;-72
2022/05/12 04:51:32;;;;;;;35.28;13.32;;;12.70;99.90;;;;;;5071429;28;20035;-72
2022/05/12 04:53:59;;;;;;;35.92;14.02;;;13.00;99.90;;;;;;5072750;28;20028;-72
2022/05/12 04:56:25;;;;;;;34.65;14.38;;;13.00;99.90;;;;;;5072841;28;20115;-73
2022/05/12 04:58:51;;;;;;;38.83;13.45;;;12.80;99.90;;;;;;5072932;28;20503;-72
2022/05/12 05:01:17;;;;;;;36.33;13.85;;;12.90;99.90;;;;;;5073069;28;20036;-72
2022/05/12 05:03:43;;;;;;;36.85;13.85;;;12.80;99.90;;;;;;5083743;28;20019;-72
2022/05/12 05:06:09;;;;;;;42.55;14.05;;;13.00;99.90;;;;;;5092413;28;20069;-72
2022/05/12 05:08:36;;;;;;;44.15;15.10;;;13.10;99.90;;;;;;5093011;28;20028;-72
2022/05/12 05:11:03;;;;;;;40.17;15.20;;;12.80;99.90;;;;;;5092962;28;20063;-73
2022/05/12 05:13:30;;;;;;;31.63;12.02;;;13.00;99.90;;;;;;5092955;28;20508;-72
2022/05/12 05:15:55;;;;;;;40.45;13.70;;;13.00;99.90;;;;;;5092686;28;20029;-72
2022/05/12 05:18:21;;;;;;;34.15;14.85;;;13.20;99.90;;;;;;5092857;28;20032;-72
2022/05/12 05:20:48;;;;;;;33.70;14.20;;;13.30;99.90;;;;;;5092626;28;20032;-72
2022/05/12 05:23:21;;;;;;;32.28;13.15;;;13.20;99.90;;;;;;5092975;28;20077;-72
2022/05/12 05:25:48;;;;;;;38.00;13.27;;;13.30;99.90;;;;;;5092682;28;20036;-72
2022/05/12 05:28:14;;;;;;;37.97;13.80;;;13.10;99.90;;;;;;5092945;28;20089;-72
2022/05/12 05:30:41;;;;;;;33.25;11.98;;;13.20;99.90;;;;;;5092571;28;20465;-72
2022/05/12 05:33:08;;;;;;;39.55;13.30;;;13.10;99.90;;;;;;5092956;28;20052;-72
2022/05/12 05:35:34;;;;;;;31.13;12.55;;;13.20;99.90;;;;;;5092215;28;20035;-72
2022/05/12 05:38:01;;;;;;;31.02;10.75;;;13.10;99.90;;;;;;5091370;28;20024;-72
2022/05/12 05:40:28;;;;;;;31.60;11.90;;;13.40;99.90;;;;;;5092423;28;20051;-72
2022/05/12 05:42:55;;;;;;;28.92;10.98;;;13.40;99.90;;;;;;5092594;28;20051;-72
2022/05/12 05:45:22;;;;;;;28.80;11.40;;;13.30;99.90;;;;;;5092546;28;20082;-72
2022/05/12 05:47:54;;;;;;;28.52;11.43;;;13.40;99.90;;;;;;5078767;28;20037;-73
2022/05/12 05:50:24;;;;;;;27.77;11.55;;;13.40;99.90;;;;;;5093939;28;20099;-72
2022/05/12 05:55:34;;;;;;;25.25;9.98;;;13.70;99.90;;;;;;5084705;28;20495;-72
2022/05/12 05:58:01;;;;;;;26.13;10.57;;;13.70;99.90;;;;;;5108017;28;20349;-72
2022/05/12 06:00:28;;;;;;;31.83;10.95;;;14.00;99.90;;;;;;5107466;28;20032;-72
2022/05/12 06:02:54;;;;;;;25.80;10.20;;;14.10;99.90;;;;;;5099632;28;20020;-73
2022/05/12 06:05:21;;;;;;;21.40;8.43;;;14.00;99.90;;;;;;5106004;28;20081;-73
2022/05/12 06:07:47;;;;;;;29.08;8.98;;;13.90;99.90;;;;;;5100834;28;20368;-73
2022/05/12 06:10:13;;;;;;;24.95;8.98;;;14.10;99.90;;;;;;5114412;28;20030;-73
2022/05/12 06:12:40;;;;;;;22.95;8.77;;;14.40;99.90;;;;;;5101782;28;20028;-73
2022/05/12 06:15:07;;;;;;;23.33;8.38;;;14.30;99.90;;;;;;5096946;28;20032;-73
2022/05/12 06:17:36;;;;;;;26.52;8.55;;;14.50;99.90;;;;;;5111154;28;20058;-73
2022/05/12 06:20:09;;;;;;;20.88;8.27;;;14.30;99.90;;;;;;5103403;28;20016;-73
2022/05/12 06:22:35;;;;;;;19.83;6.70;;;14.10;99.90;;;;;;5102377;27;20032;-73
2022/05/12 06:25:05;;;;;;;23.63;6.85;;;14.00;99.90;;;;;;5112081;28;20019;-73
2022/05/12 06:27:32;;;;;;;19.25;7.13;;;14.30;99.90;;;;;;5099229;28;20074;-73
2022/05/12 06:29:58;;;;;;;19.48;7.25;;;14.30;99.90;;;;;;5088841;28;20380;-73
2022/05/12 06:32:23;;;;;;;19.85;7.25;;;14.30;99.90;;;;;;5089526;28;20075;-73
2022/05/12 06:34:49;;;;;;;18.83;6.18;;;14.70;99.90;;;;;;5081824;28;20469;-73
2022/05/12 06:37:16;;;;;;;23.30;6.70;;;14.90;99.90;;;;;;5110593;28;20046;-73
2022/05/12 06:39:42;;;;;;;20.30;6.80;;;14.90;99.90;;;;;;5100549;28;20024;-73
2022/05/12 06:42:08;;;;;;;16.75;6.00;;;14.90;99.90;;;;;;5105586;28;20391;-73
2022/05/12 06:44:42;;;;;;;16.52;6.13;;;15.10;99.90;;;;;;5107547;28;20016;-73
2022/05/12 06:47:13;;;;;;;15.65;5.47;;;14.90;99.90;;;;;;5097693;28;20051;-73
2022/05/12 06:49:40;;;;;;;22.35;6.10;;;15.20;99.90;;;;;;5099776;28;20015;-73
2022/05/12 06:52:07;;;;;;;18.33;5.78;;;15.00;99.90;;;;;;5104105;28;20494;-73
2022/05/12 06:54:34;;;;;;;13.50;5.55;;;15.10;99.90;;;;;;5107620;28;20059;-72
2022/05/12 06:57:02;;;;;;;14.27;6.10;;;15.30;99.90;;;;;;5097777;28;20107;-72
2022/05/12 06:59:28;;;;;;;20.75;6.97;;;15.20;99.90;;;;;;5111042;28;20016;-72
2022/05/12 07:01:54;;;;;;;18.13;6.25;;;15.50;99.90;;;;;;5101893;28;20463;-73
2022/05/12 07:04:21;;;;;;;18.67;5.95;;;15.30;99.90;;;;;;5109220;28;20061;-73
2022/05/12 07:06:47;;;;;;;14.77;5.65;;;15.30;99.90;;;;;;5077834;28;20079;-73
2022/05/12 07:09:13;;;;;;;18.05;5.25;;;15.30;99.90;;;;;;5109291;28;20024;-73
2022/05/12 07:11:39;;;;;;;19.50;5.43;;;15.40;99.90;;;;;;5098663;28;20015;-73
2022/05/12 07:14:05;;;;;;;16.40;5.70;;;15.60;99.90;;;;;;5113759;28;20031;-73
2022/05/12 07:16:31;;;;;;;17.55;6.47;;;15.50;99.90;;;;;;5101516;28;20020;-72
2022/05/12 07:18:57;;;;;;;12.60;3.92;;;15.40;99.90;;;;;;5094708;28;20119;-72
2022/05/12 07:26:54;;;;;;;12.40;4.10;;;15.60;99.90;;;;;;5087178;28;20067;-73
2022/05/12 07:29:26;;;;;;;12.05;4.07;;;15.80;99.90;;;;;;5074486;28;20048;-73
2022/05/12 07:31:52;;;;;;;11.32;3.63;;;16.30;99.90;;;;;;5073605;28;20052;-74
2022/05/12 07:34:18;;;;;;;11.10;3.33;;;16.30;99.90;;;;;;5073177;28;20461;-74
2022/05/12 07:36:46;;;;;;;9.23;3.70;;;15.90;99.90;;;;;;5074068;28;20051;-74
2022/05/12 07:39:13;;;;;;;15.93;3.97;;;15.80;99.90;;;;;;5074166;28;20370;-74
2022/05/12 07:41:41;;;;;;;8.30;3.60;;;16.20;99.90;;;;;;5074357;28;20044;-75
2022/05/12 07:44:10;;;;;;;8.02;3.58;;;16.10;99.90;;;;;;5074124;28;20468;-74
2022/05/12 07:46:37;;;;;;;13.70;4.13;;;16.50;99.90;;;;;;5077430;28;20046;-74
2022/05/12 07:49:03;;;;;;;13.18;4.72;;;16.40;99.90;;;;;;5094359;28;20541;-74
2022/05/12 07:51:29;;;;;;;12.73;3.88;;;16.50;99.90;;;;;;5094445;28;20020;-74
2022/05/12 07:53:55;;;;;;;11.90;4.00;;;16.40;99.90;;;;;;5094080;28;20020;-74
2022/05/12 07:56:25;;;;;;;13.55;3.67;;;16.50;99.90;;;;;;5094318;28;20380;-74
2022/05/12 07:58:51;;;;;;;8.43;3.42;;;16.50;99.90;;;;;;5094054;28;20169;-74
2022/05/12 08:01:19;;;;;;;12.57;3.70;;;16.70;99.90;;;;;;5093950;28;20084;-73
2022/05/12 08:03:45;;;;;;;9.63;3.22;;;16.60;99.90;;;;;;5092564;28;20036;-75
2022/05/12 08:06:14;;;;;;;15.07;3.30;;;16.60;99.90;;;;;;5093705;28;20036;-74
2022/05/12 08:08:42;;;;;;;9.30;3.88;;;16.70;99.90;;;;;;5093812;28;20036;-74
2022/05/12 08:11:08;;;;;;;11.95;2.85;;;16.70;99.90;;;;;;5093549;28;20111;-74
2022/05/12 08:13:34;;;;;;;9.20;2.92;;;16.90;99.90;;;;;;5093914;28;20026;-74
2022/05/12 08:16:01;;;;;;;7.85;2.90;;;17.20;99.90;;;;;;5093524;28;20057;-74
2022/05/12 08:18:27;;;;;;;9.57;2.90;;;17.00;99.50;;;;;;5093814;28;20055;-74
2022/05/12 08:20:54;;;;;;;11.25;2.75;;;17.10;99.70;;;;;;5093746;28;20073;-74
2022/05/12 08:23:20;;;;;;;14.52;3.38;;;17.40;99.20;;;;;;5075753;28;20112;-74
2022/05/12 08:25:47;;;;;;;7.63;2.63;;;17.10;99.70;;;;;;5072351;28;20041;-74
2022/05/12 08:28:18;;;;;;;7.55;2.42;;;17.00;97.80;;;;;;5073428;28;20039;-74
2022/05/12 08:30:45;;;;;;;9.60;2.50;;;17.10;97.70;;;;;;5073158;28;20128;-75
2022/05/12 08:33:12;;;;;;;6.72;2.60;;;17.30;97.40;;;;;;5072176;28;20027;-74
2022/05/12 08:35:38;;;;;;;11.23;3.25;;;17.30;97.80;;;;;;5072956;28;20037;-73
2022/05/12 08:38:05;;;;;;;9.32;3.25;;;17.30;97.00;;;;;;5073295;28;20020;-75
2022/05/12 08:40:30;;;;;;;7.72;3.38;;;17.40;96.70;;;;;;5073156;28;20020;-74
2022/05/12 08:43:05;;;;;;;10.25;3.03;;;17.50;96.10;;;;;;5073195;28;20520;-75
2022/05/12 08:45:31;;;;;;;11.45;3.03;;;17.90;95.30;;;;;;5072860;28;20017;-75
2022/05/12 08:47:58;;;;;;;7.15;2.83;;;18.00;94.00;;;;;;5087913;28;20396;-74
2022/05/12 08:50:30;;;;;;;12.10;2.63;;;18.00;94.10;;;;;;5091994;28;20028;-74
2022/05/12 08:52:58;;;;;;;;;;;18.30;93.60;;;;;;5092391;28;20071;-75
2022/05/12 08:55:46;;;;;;;6.68;2.10;;;18.00;94.00;;;;;;5093080;28;19908;-74
2022/05/12 08:58:21;;;;;;;4.35;1.92;;;18.20;94.10;;;;;;5092703;28;20449;-74
2022/05/12 09:00:47;;;;;;;4.43;1.85;;;18.60;93.20;;;;;;5092984;28;20032;-74
2022/05/12 09:03:34;;;;;;;13.63;2.08;;;17.90;93.10;;;;;;5093084;28;20380;-75
2022/05/12 09:06:14;;;;;;;4.53;1.65;;;18.10;93.50;;;;;;5092729;28;20369;-74
2022/05/12 09:09:01;;;;;;;5.43;1.80;;;18.60;92.70;;;;;;5092997;28;20024;-73
2022/05/12 09:11:48;;;;;;;9.93;2.08;;;18.70;92.80;;;;;;5093035;28;20376;-74
2022/05/12 09:14:32;;;;;;;8.20;2.17;;;18.80;92.10;;;;;;5092728;28;20035;-74
2022/05/12 09:16:59;;;;;;;6.20;1.83;;;18.40;93.20;;;;;;5092898;28;20027;-75
2022/05/12 09:19:27;;;;;;;12.25;2.00;;;18.30;92.90;;;;;;5092979;28;20043;-74
2022/05/12 09:21:54;;;;;;;10.90;1.98;;;18.60;92.70;;;;;;5092945;28;20032;-74
2022/05/12 09:24:20;;;;;;;5.05;1.88;;;18.80;92.40;;;;;;5097094;28;20084;-75
2022/05/12 09:26:49;;;;;;;6.38;1.60;;;19.00;92.10;;;;;;5096880;28;20133;-74
2022/05/12 09:29:22;;;;;;;9.43;1.67;;;18.50;92.20;;;;;;5096757;28;20024;-75
2022/05/12 09:31:54;;;;;;;6.32;2.17;;;18.70;91.90;;;;;;5096865;28;20388;-74
2022/05/12 09:34:26;;;;;;;9.93;1.95;;;18.50;92.40;;;;;;5097039;28;20024;-74
2022/05/12 09:36:53;;;;;;;7.47;1.90;;;18.20;92.30;;;;;;5095337;28;20126;-75
2022/05/12 09:39:49;;;;;;;13.48;2.00;;;18.30;92.50;;;;;;5096928;28;20023;-75
2022/05/12 09:42:40;;;;;;;5.50;1.63;;;18.20;92.40;;;;;;5092088;28;20048;-75
2022/05/12 09:45:18;;;;;;;5.65;1.52;;;18.60;91.20;;;;;;5093449;28;20459;-74
2022/05/12 09:47:44;;;;;;;8.35;1.65;;;18.70;91.10;;;;;;5083042;28;20037;-76
2022/05/12 09:50:16;;;;;;;4.43;1.33;;;18.40;91.10;;;;;;5076412;28;20525;-75
2022/05/12 09:52:55;;;;;;;6.93;1.48;;;18.60;91.70;;;;;;5076393;28;20029;-75
2022/05/12 09:55:27;;;;;;;7.63;1.90;;;18.60;90.60;;;;;;5076211;28;20024;-74
2022/05/12 09:58:05;;;;;;;;;;;19.00;90.90;;;;;;5076432;28;20032;-75
2022/05/12 10:00:30;;;;;;;6.65;2.10;;;19.10;90.80;;;;;;5076238;28;20353;-75
2022/05/12 10:09:22;;;;;;;8.18;1.58;;;18.50;91.20;;;;;;5094801;28;20545;-74
2022/05/12 10:11:57;;;;;;;7.82;1.90;;;18.80;91.20;;;;;;5083663;28;20085;-74
2022/05/12 10:14:52;;;;;;;5.43;2.00;;;18.90;91.70;;;;;;5096283;28;20028;-75
2022/05/12 10:17:19;;;;;;;6.63;1.52;;;19.50;90.80;;;;;;5096088;28;20517;-74
2022/05/12 10:19:46;;;;;;;7.90;1.70;;;20.00;86.40;;;;;;5096455;28;20028;-72
2022/05/12 10:22:33;;;;;;;7.63;1.98;;;20.00;89.20;;;;;;5095247;28;20032;-74
2022/05/12 10:25:21;;;;;;;9.20;1.60;;;20.00;88.00;;;;;;5095663;28;20036;-77
2022/05/12 10:27:53;;;;;;;3.33;1.35;;;20.30;86.30;;;;;;5095190;28;20036;-76
2022/05/12 10:30:35;;;;;;;6.75;1.73;;;19.80;86.90;;;;;;5083537;28;20029;-77
2022/05/12 10:33:00;;;;;;;;;;;19.50;88.70;;;;;;5076078;28;20033;-78
2022/05/12 10:35:40;;;;;;;6.65;1.58;;;20.10;89.40;;;;;;5074648;28;19913;-78
2022/05/12 10:38:14;;;;;;;9.02;1.70;;;20.30;89.20;;;;;;5060257;28;20396;-77
2022/05/12 10:40:57;;;;;;;9.07;1.55;;;19.60;88.80;;;;;;5095360;28;20381;-78
2022/05/12 10:43:42;;;;;;;8.02;1.77;;;19.10;89.20;;;;;;5095517;28;20029;-77
2022/05/12 10:46:15;;;;;;;5.75;1.65;;;19.60;89.70;;;;;;5095250;28;20061;-78
2022/05/12 10:49:10;;;;;;;10.18;1.80;;;19.70;90.50;;;;;;5095422;28;20032;-76
2022/05/12 10:52:19;;;;;;;6.55;1.90;;;20.60;89.10;;;;;;5094007;28;20032;-78
2022/05/12 10:54:59;;;;;;;5.28;1.70;;;20.80;88.00;;;;;;5094832;28;20032;-77
2022/05/12 10:57:44;;;;;;;8.70;1.63;;;20.50;88.70;;;;;;5095328;28;20550;-77
2022/05/12 11:00:48;;;;;;;5.18;1.70;;;20.10;87.30;;;;;;5095316;28;20068;-78
2022/05/12 11:03:21;;;;;;;9.88;1.90;;;20.40;88.00;;;;;;5093694;28;20038;-78
2022/05/12 11:05:53;;;;;;;25.55;3.17;;;20.70;87.00;;;;;;5094871;28;20036;-78
2022/05/12 11:08:26;;;;;;;11.70;2.80;;;21.20;85.80;;;;;;5089032;28;20477;-78
2022/05/12 11:10:59;;;;;;;6.45;1.77;;;21.20;85.30;;;;;;5074800;28;20027;-77
2022/05/12 11:13:38;;;;;;;5.88;2.00;;;20.90;83.10;;;;;;5073371;28;20085;-78
2022/05/12 11:16:26;;;;;;;7.70;1.55;;;21.10;85.20;;;;;;5074648;28;20039;-78
2022/05/12 11:19:07;;;;;;;10.95;2.03;;;20.50;86.00;;;;;;5074483;28;20374;-76
2022/05/12 11:21:57;;;;;;;10.23;1.55;;;21.10;87.00;;;;;;5074790;28;20024;-77
2022/05/12 11:24:45;;;;;;;6.30;1.67;;;20.70;84.30;;;;;;5062997;28;20392;-77
2022/05/12 11:27:43;;;;;;;6.85;1.80;;;20.50;85.10;;;;;;5073173;28;20473;-76
2022/05/12 11:30:36;;;;;;;8.65;1.45;;;20.50;84.30;;;;;;5074469;28;20036;-77
2022/05/12 11:33:46;;;;;;;7.03;1.70;;;21.00;83.30;;;;;;5074473;28;20041;-77
2022/05/12 11:36:12;;;;;;;12.60;2.00;;;20.50;84.40;;;;;;5052143;28;20138;-76
2022/05/12 11:38:39;;;;;;;8.32;1.73;;;20.30;85.00;;;;;;5051729;28;20432;-76
2022/05/12 11:41:35;;;;;;;10.95;1.77;;;20.70;84.80;;;;;;5062490;28;20048;-77
2022/05/12 11:44:27;;;;;;;10.05;1.77;;;20.80;84.90;;;;;;5068651;28;20044;-77
2022/05/12 11:47:17;;;;;;;8.15;1.70;;;20.80;82.90;;;;;;5074348;28;20041;-77
2022/05/12 11:49:43;;;;;;;8.18;1.55;;;21.40;82.90;;;;;;5074002;28;20032;-77
2022/05/12 11:52:50;;;;;;;8.88;1.35;;;21.90;80.10;;;;;;5073728;28;20024;-78
2022/05/12 11:55:30;;;;;;;10.65;1.52;;;22.60;80.60;;;;;;5064617;28;20037;-78
2022/05/12 11:58:03;;;;;;;4.55;1.55;;;22.50;79.50;;;;;;5073915;28;20025;-77
2022/05/12 12:00:34;;;;;;;5.50;1.88;;;22.00;80.00;;;;;;5073949;28;20457;-77
2022/05/12 12:03:18;;;;;;;;;;;21.70;80.50;;;;;;5077845;28;20181;-76
2022/05/12 12:05:47;;;;;;;12.35;2.03;;;21.40;80.40;;;;;;5092807;28;19919;-76
2022/05/12 12:08:39;;;;;;;10.77;2.08;;;21.20;80.50;;;;;;5092275;28;20035;-76
2022/05/12 12:11:13;;;;;;;15.38;2.85;;;20.70;80.40;;;;;;5094037;28;20048;-75
2022/05/12 12:13:43;;;;;;;14.75;2.25;;;20.50;82.40;;;;;;5093923;28;20043;-76
2022/05/12 12:16:12;;;;;;;14.18;2.15;;;20.90;82.40;;;;;;5092625;28;20029;-75
2022/05/12 12:18:38;;;;;;;6.57;1.98;;;21.40;82.80;;;;;;5075375;28;20020;-77
2022/05/12 12:21:41;;;;;;;5.30;1.65;;;21.50;81.00;;;;;;5093439;28;20027;-77
2022/05/12 12:24:24;;;;;;;8.80;1.85;;;21.70;80.90;;;;;;5093638;28;20074;-77
2022/05/12 12:27:18;;;;;;;9.52;2.03;;;21.60;81.20;;;;;;5094440;28;20472;-76
2022/05/12 12:29:46;;;;;;;7.45;1.70;;;21.70;80.10;;;;;;5092928;28;20039;-77
2022/05/12 12:32:26;;;;;;;9.00;1.65;;;22.00;80.40;;;;;;5093691;28;20024;-77
2022/05/12 12:34:56;;;;;;;7.70;1.88;;;22.00;78.50;;;;;;5093502;28;20028;-78
2022/05/12 12:37:47;;;;;;;6.78;1.88;;;22.00;79.20;;;;;;5093073;28;20023;-78
2022/05/12 12:40:33;;;;;;;9.27;1.60;;;21.60;79.50;;;;;;5093454;28;20042;-78
2022/05/12 12:43:18;;;;;;;9.07;1.70;;;21.90;78.80;;;;;;5089209;28;20459;-77
2022/05/12 12:45:48;;;;;;;8.40;1.95;;;21.50;80.00;;;;;;5091943;28;20118;-78
2022/05/12 12:48:24;;;;;;;12.50;1.73;;;22.00;79.90;;;;;;5074489;28;20095;-78
2022/05/12 12:50:52;;;;;;;8.18;2.10;;;21.80;79.00;;;;;;5071514;28;20020;-78
2022/05/12 12:56:30;;;;;;;6.43;1.55;;;21.90;79.10;;;;;;5073152;28;20024;-77
2022/05/12 12:56:35;;;;;;;11.38;1.75;;;22.20;77.90;;;;;;5072745;28;20071;-77
2022/05/12 12:59:12;;;;;;;9.43;2.10;;;21.80;78.00;;;;;;5072765;28;20098;-77
2022/05/12 13:01:59;;;;;;;7.38;2.00;;;22.00;78.80;;;;;;5073187;28;20029;-78
2022/05/12 13:04:35;;;;;;;9.52;1.50;;;22.20;77.70;;;;;;5089535;28;20039;-78
2022/05/12 13:07:08;;;;;;;9.65;1.83;;;22.40;75.60;;;;;;5092921;28;20101;-78
2022/05/12 13:09:41;;;;;;;6.93;1.50;;;22.70;76.30;;;;;;5093194;28;20048;-79
2022/05/12 13:12:17;;;;;;;11.82;1.98;;;22.30;76.80;;;;;;5092976;28;20024;-78